Time;durP1;ratioP1;P1;durP2;ratioP2;P2;SDS_P1;SDS_P2;PMS_P1;PMS_P2;Temp;Humidity;BMP_temperature;BMP_pressure;BME280_temperature;BME280_humidity;BME280_pressure;Samples;Min_cycle;Max_cycle;Signal;HPM_P1;HPM_P2
2023/03/05 07:37:40;;;;;;;14.70;8.40;;;;;;;14.45;42.69;98580.77;258573;1305;545646;-76
2023/03/05 07:43:44;;;;;;;16.00;8.30;;;;;;;14.75;42.47;98575.73;264929;1277;22583;-78
2023/03/05 07:49:47;;;;;;;16.20;8.60;;;;;;;14.43;43.03;98573.10;265625;1273;125478;-77
2023/03/05 07:55:52;;;;;;;17.90;10.70;;;;;;;14.15;43.81;98577.19;265602;1279;25343;-75
2023/03/05 08:01:55;;;;;;;16.60;9.70;;;;;;;13.88;44.58;98573.12;265922;1273;24289;-74
2023/03/05 08:07:58;;;;;;;16.00;9.00;;;;;;;14.00;44.52;98559.48;265598;1279;22611;-78
2023/03/05 08:14:01;;;;;;;18.20;10.10;;;;;;;14.11;44.45;98555.78;265489;1280;24275;-76
2023/03/05 08:20:09;;;;;;;20.00;10.80;;;;;;;13.54;45.40;98549.55;265661;1276;22880;-77
2023/03/05 08:26:14;;;;;;;16.00;9.40;;;;;;;13.88;45.18;98541.27;265668;1276;23882;-76
2023/03/05 08:32:17;;;;;;;15.70;8.80;;;;;;;13.84;45.13;98537.27;265680;1259;23003;-77
2023/03/05 08:38:20;;;;;;;15.50;9.60;;;;;;;13.94;44.54;98536.05;265876;1281;22570;-77
2023/03/05 08:44:23;;;;;;;16.60;10.00;;;;;;;13.90;44.30;98537.08;265620;1276;24439;-77
2023/03/05 08:50:26;;;;;;;16.20;9.40;;;;;;;14.31;43.89;98525.77;265755;1273;22537;-77
2023/03/05 08:56:30;;;;;;;18.40;9.80;;;;;;;14.67;43.32;98519.47;265599;1274;25486;-75
2023/03/05 09:02:34;;;;;;;16.20;9.20;;;;;;;14.81;42.99;98521.20;265444;1273;25223;-76
2023/03/05 09:08:37;;;;;;;13.40;8.40;;;;;;;14.36;42.82;98516.73;265578;1279;22984;-75
2023/03/05 09:14:41;;;;;;;14.10;8.40;;;;;;;14.50;42.54;98508.57;265897;1273;24255;-76
2023/03/05 09:20:44;;;;;;;19.80;11.00;;;;;;;14.54;42.49;98501.32;266275;1270;22580;-76
2023/03/05 09:26:47;;;;;;;20.20;10.90;;;;;;;14.69;42.59;98500.23;266251;1276;22608;-78
2023/03/05 09:32:51;;;;;;;18.90;11.90;;;;;;;14.47;42.93;98493.88;266515;1270;25428;-79
2023/03/05 09:38:54;;;;;;;15.00;8.70;;;;;;;15.00;42.23;98488.55;266490;1270;22571;-79
2023/03/05 09:45:18;;;;;;;17.50;10.20;;;;;;;14.67;42.53;98483.59;266568;1276;22563;-79
2023/03/05 09:51:25;;;;;;;20.10;11.10;;;;;;;14.59;42.85;98477.80;266565;1271;22569;-78
2023/03/05 09:57:38;;;;;;;20.00;10.40;;;;;;;14.71;43.15;98468.73;266669;1276;22562;-78
2023/03/05 10:04:05;;;;;;;17.00;10.90;;;;;;;15.11;42.94;98467.77;267133;1270;22584;-74
2023/03/05 10:10:13;;;;;;;19.40;10.70;;;;;;;15.10;43.16;98462.78;266773;1273;22566;-78
2023/03/05 10:16:55;;;;;;;19.00;10.60;;;;;;;15.45;42.71;98453.17;266971;1251;22597;-79
2023/03/05 10:22:58;;;;;;;18.60;10.70;;;;;;;15.25;42.83;98443.78;266434;1270;22600;-80
2023/03/05 10:29:16;;;;;;;20.10;10.90;;;;;;;14.68;43.46;98448.02;266276;1270;22544;-80
2023/03/05 10:35:31;;;;;;;18.30;10.60;;;;;;;14.94;43.43;98438.02;266235;1272;23387;-76
2023/03/05 10:42:01;;;;;;;18.60;10.30;;;;;;;15.00;43.19;98429.10;266157;1260;23212;-75
2023/03/05 10:48:12;;;;;;;17.80;11.00;;;;;;;15.00;43.05;98420.80;266352;1277;22586;-76
2023/03/05 10:54:24;;;;;;;17.20;10.50;;;;;;;14.53;43.71;98418.50;266310;1271;25233;-76
2023/03/05 11:00:28;;;;;;;22.90;11.10;;;;;;;14.07;44.09;98415.22;266843;1267;25322;-76
2023/03/05 11:06:36;;;;;;;23.00;12.30;;;;;;;13.44;45.55;98414.10;266970;1267;23890;-78
2023/03/05 11:12:39;;;;;;;17.50;10.20;;;;;;;13.36;47.23;98407.82;267156;1267;22570;-76
2023/03/05 11:18:48;;;;;;;16.90;8.20;;;;;;;13.16;48.28;98401.52;267234;1250;22785;-81
2023/03/05 11:25:21;;;;;;;15.70;7.60;;;;;;;13.26;48.60;98403.83;268133;1267;24350;-81
2023/03/05 11:31:29;;;;;;;18.50;8.20;;;;;;;13.08;48.07;98396.79;268933;1266;22521;-81
2023/03/05 11:37:41;;;;;;;13.90;7.00;;;;;;;12.93;48.37;98394.95;268841;1267;22559;-80
2023/03/05 11:43:44;;;;;;;14.70;6.80;;;;;;;12.79;48.85;98395.33;268760;1266;22580;-81
2023/03/05 11:49:50;;;;;;;15.00;8.20;;;;;;;12.75;48.56;98400.04;268583;1274;24281;-81
2023/03/05 11:56:12;;;;;;;14.60;7.70;;;;;;;12.71;48.20;98398.50;268490;1274;22547;-82
2023/03/05 12:02:21;;;;;;;12.50;6.40;;;;;;;12.27;47.84;98395.83;268437;1266;22596;-81
2023/03/05 12:08:32;;;;;;;11.80;5.20;;;;;;;12.79;46.52;98384.46;268332;1273;22733;-80
2023/03/05 12:14:44;;;;;;;8.90;4.40;;;;;;;12.35;47.72;98385.02;268609;1272;23555;-80
2023/03/05 12:21:06;;;;;;;10.90;5.30;;;;;;;12.77;46.12;98376.15;268639;1267;22565;-80
2023/03/05 12:27:14;;;;;;;10.50;5.20;;;;;;;13.23;45.54;98366.80;268214;1266;22579;-80
2023/03/05 12:33:37;;;;;;;8.60;4.60;;;;;;;13.22;45.13;98367.00;268050;1267;22540;-81
2023/03/05 12:39:49;;;;;;;9.50;5.10;;;;;;;12.76;45.98;98364.80;268699;1266;22561;-78
2023/03/05 12:46:21;;;;;;;10.70;5.10;;;;;;;13.87;44.84;98348.80;268130;1273;23642;-79
2023/03/05 12:52:30;;;;;;;12.20;4.80;;;;;;;14.17;43.89;98339.60;267871;1273;22521;-80
2023/03/05 12:58:41;;;;;;;10.50;4.60;;;;;;;14.76;43.18;98333.79;267795;1275;23983;-81
2023/03/05 13:04:46;;;;;;;9.40;4.20;;;;;;;14.27;43.44;98336.48;267993;1270;25328;-78
2023/03/05 13:11:17;;;;;;;10.50;4.90;;;;;;;14.29;43.52;98334.70;267560;1272;22567;-78
2023/03/05 13:17:28;;;;;;;15.60;5.50;;;;;;;13.71;44.17;98332.32;267957;1273;22523;-76
2023/03/05 13:23:32;;;;;;;14.70;7.40;;;;;;;14.07;44.23;98330.98;267433;1266;23248;-77
2023/03/05 13:29:51;;;;;;;14.80;7.70;;;;;;;14.43;44.46;98336.02;266658;1267;22604;-78
2023/03/05 13:35:54;;;;;;;14.60;7.50;;;;;;;14.47;44.32;98330.39;266958;1267;24315;-74
2023/03/05 13:42:13;;;;;;;13.20;7.20;;;;;;;14.35;44.86;98327.81;267113;1273;24755;-74
2023/03/05 13:48:19;;;;;;;11.20;5.40;;;;;;;14.83;44.13;98324.57;267165;1266;22640;-75
2023/03/05 13:54:24;;;;;;;15.20;6.40;;;;;;;14.88;43.90;98309.50;266687;1271;23007;-76
2023/03/05 14:00:34;;;;;;;14.80;6.20;;;;;;;14.63;43.63;98309.96;267235;1267;22541;-81
2023/03/05 14:07:01;;;;;;;17.30;6.30;;;;;;;14.84;42.92;98309.09;267032;1269;22547;-81
2023/03/05 14:13:11;;;;;;;14.60;6.00;;;;;;;14.78;42.84;98296.65;266263;1269;22534;-86
2023/03/05 14:19:35;;;;;;;12.80;5.80;;;;;;;15.29;42.27;98284.91;267305;1266;25312;-81
2023/03/05 14:25:39;;;;;;;16.90;6.80;;;;;;;14.05;43.75;98284.38;268008;1273;22536;-79
2023/03/05 14:31:50;;;;;;;15.20;6.80;;;;;;;13.93;44.29;98282.30;268017;1251;25469;-80
2023/03/05 14:37:55;;;;;;;12.40;6.50;;;;;;;14.12;43.48;98287.09;268055;1266;24936;-81
2023/03/05 14:43:59;;;;;;;15.80;6.40;;;;;;;13.57;43.87;98288.73;267618;1272;25460;-81
2023/03/05 14:50:18;;;;;;;12.20;5.40;;;;;;;13.91;42.87;98269.21;269056;1273;22617;-81
2023/03/05 14:56:26;;;;;;;9.70;4.40;;;;;;;13.66;42.30;98286.50;268698;1266;23427;-80
2023/03/05 15:02:30;;;;;;;8.10;3.40;;;;;;;13.43;41.42;98290.27;267726;1273;22510;-82
2023/03/05 15:08:39;;;;;;;5.00;2.50;;;;;;;13.53;40.28;98290.89;267832;1272;22741;-83
2023/03/05 15:14:45;;;;;;;5.70;2.10;;;;;;;13.64;39.69;98278.86;269329;1272;22761;-78
2023/03/05 15:20:51;;;;;;;5.90;2.50;;;;;;;13.26;40.05;98279.39;267842;1266;22528;-79
2023/03/05 15:26:54;;;;;;;;;;;;;;;13.52;39.69;98271.28;267551;1267;22648;-79
2023/03/05 15:33:02;;;;;;;5.30;2.40;;;;;;;13.21;40.23;98270.74;267657;1266;26471;-79
2023/03/05 15:39:06;;;;;;;5.40;2.80;;;;;;;13.83;39.74;98270.38;267488;1272;24209;-79
2023/03/05 15:45:10;;;;;;;7.60;3.10;;;;;;;14.04;39.48;98265.69;267538;1265;23907;-78
2023/03/05 15:51:13;;;;;;;8.70;4.70;;;;;;;13.96;39.49;98259.92;267247;1266;22621;-79
2023/03/05 15:57:16;;;;;;;6.50;3.10;;;;;;;13.97;39.40;98257.88;267860;1266;22559;-78
2023/03/05 16:03:19;;;;;;;7.70;2.80;;;;;;;14.02;39.24;98256.95;267606;1266;25344;-84
2023/03/05 16:09:25;;;;;;;8.30;3.40;;;;;;;14.07;39.53;98254.25;268151;1270;23118;-83
2023/03/05 16:15:32;;;;;;;7.90;3.50;;;;;;;13.96;39.83;98260.69;267482;1273;22637;-82
2023/03/05 16:21:38;;;;;;;7.20;3.70;;;;;;;13.63;40.08;98256.27;267689;1267;22670;-78
2023/03/05 16:27:42;;;;;;;7.70;3.40;;;;;;;13.48;40.22;98258.80;267531;1267;22525;-78
2023/03/05 16:33:46;;;;;;;6.70;3.00;;;;;;;13.33;40.42;98252.55;267511;1267;22588;-78
2023/03/05 16:39:50;;;;;;;6.60;3.10;;;;;;;12.32;42.18;98268.75;267631;1266;23225;-79
2023/03/05 16:45:55;;;;;;;6.40;2.50;;;;;;;12.39;42.58;98274.56;267523;1266;22601;-78
2023/03/05 16:51:58;;;;;;;5.50;2.50;;;;;;;12.70;42.17;98270.60;267648;1266;24805;-78
2023/03/05 16:58:18;;;;;;;6.80;2.70;;;;;;;12.77;42.38;98273.09;267792;1265;23901;-78
2023/03/05 17:04:23;;;;;;;9.60;3.80;;;;;;;12.57;43.06;98273.35;267604;1267;25214;-78
2023/03/05 17:10:27;;;;;;;7.60;3.70;;;;;;;13.00;42.65;98270.33;267345;1273;26609;-79
2023/03/05 17:16:31;;;;;;;8.40;3.90;;;;;;;13.16;42.40;98276.20;267258;1269;22528;-77
2023/03/05 17:22:34;;;;;;;10.90;4.50;;;;;;;13.12;42.36;98275.64;267380;1267;23165;-78
2023/03/05 17:28:39;;;;;;;8.60;3.70;;;;;;;13.29;42.23;98276.70;267557;1266;22618;-78
2023/03/05 17:34:43;;;;;;;9.70;3.90;;;;;;;13.28;41.84;98282.64;267082;1269;22513;-78
2023/03/05 17:40:57;;;;;;;9.70;4.50;;;;;;;12.88;42.63;98298.77;267222;1273;22522;-79
2023/03/05 17:47:01;;;;;;;8.90;4.10;;;;;;;12.64;43.84;98302.98;267265;1266;25871;-75
2023/03/05 17:53:06;;;;;;;9.60;4.50;;;;;;;12.98;44.13;98301.98;267169;1273;25281;-76
2023/03/05 17:59:10;;;;;;;10.10;4.60;;;;;;;12.84;44.55;98307.77;267399;1273;22651;-76
2023/03/05 18:05:14;;;;;;;9.80;4.70;;;;;;;11.74;47.20;98313.00;267040;1266;22621;-78
2023/03/05 18:11:17;;;;;;;10.40;4.40;;;;;;;12.13;47.04;98311.73;267457;1272;25466;-78
2023/03/05 18:17:23;;;;;;;9.10;4.80;;;;;;;12.61;46.39;98309.23;267881;1269;22559;-83
2023/03/05 18:23:27;;;;;;;12.70;5.80;;;;;;;11.46;50.01;98317.87;268701;1265;22918;-77
2023/03/05 18:29:36;;;;;;;13.40;6.10;;;;;;;12.33;49.39;98314.00;268993;1267;22839;-78
2023/03/05 18:35:39;;;;;;;12.70;6.40;;;;;;;12.46;49.18;98313.30;268909;1267;22588;-78
2023/03/05 18:41:43;;;;;;;13.50;6.20;;;;;;;12.48;49.29;98316.67;268140;1266;22565;-78
2023/03/05 18:47:47;;;;;;;14.40;7.10;;;;;;;12.39;50.09;98318.23;268521;1269;27143;-77
2023/03/05 18:53:53;;;;;;;14.60;6.90;;;;;;;12.78;49.46;98310.02;267522;1266;22530;-77
2023/03/05 19:00:02;;;;;;;13.90;7.90;;;;;;;12.30;50.65;98316.19;267895;1251;22568;-77
2023/03/05 19:06:10;;;;;;;15.50;8.40;;;;;;;12.86;49.36;98306.21;267963;1267;22536;-76
2023/03/05 19:12:14;;;;;;;13.50;7.60;;;;;;;13.10;48.93;98296.14;267609;1266;22514;-76
2023/03/05 19:18:27;;;;;;;13.60;7.50;;;;;;;12.89;49.37;98292.74;268298;1267;25358;-80
2023/03/05 19:24:37;;;;;;;14.00;7.10;;;;;;;12.93;49.20;98297.56;268078;1269;23441;-80
2023/03/05 19:30:52;;;;;;;13.10;7.50;;;;;;;12.99;48.97;98296.92;268875;1273;22574;-81
2023/03/05 19:37:15;;;;;;;14.20;7.70;;;;;;;12.82;49.25;98298.77;268694;1272;22558;-78
2023/03/05 19:43:36;;;;;;;15.10;8.30;;;;;;;12.91;49.21;98296.68;268524;1271;22746;-81
2023/03/05 19:49:48;;;;;;;15.00;8.00;;;;;;;12.96;49.31;98301.13;266535;1250;1103986;-73
2023/03/05 19:55:56;;;;;;;16.90;8.50;;;;;;;13.10;49.01;98300.40;267556;1272;22578;-77
2023/03/05 20:02:00;;;;;;;15.70;9.20;;;;;;;13.26;48.90;98299.85;267537;1270;22523;-76
2023/03/05 20:08:05;;;;;;;19.60;10.70;;;;;;;13.27;48.92;98296.51;267414;1273;22513;-75
2023/03/05 20:14:11;;;;;;;18.80;11.40;;;;;;;13.12;48.81;98294.47;267500;1269;22548;-77
2023/03/05 20:20:20;;;;;;;17.20;10.60;;;;;;;13.04;49.20;98290.73;268798;1271;22558;-80
2023/03/05 20:26:29;;;;;;;19.60;10.90;;;;;;;13.14;49.06;98280.35;268954;1266;22523;-79
2023/03/05 20:32:44;;;;;;;23.50;12.10;;;;;;;13.12;48.94;98274.23;268710;1266;22546;-78
2023/03/05 20:38:52;;;;;;;20.40;11.70;;;;;;;13.04;49.24;98274.17;268599;1267;22524;-82
2023/03/05 20:44:56;;;;;;;18.60;10.70;;;;;;;11.64;51.57;98282.36;268633;1273;22559;-80
2023/03/05 20:51:21;;;;;;;14.50;8.70;;;;;;;11.29;53.24;98278.92;268742;1269;22617;-79
2023/03/05 20:57:24;;;;;;;16.30;9.20;;;;;;;10.81;53.23;98278.91;268795;1269;22510;-77
2023/03/05 21:03:27;;;;;;;15.90;9.10;;;;;;;11.39;52.41;98276.95;267360;1269;22520;-74
2023/03/05 21:09:31;;;;;;;13.80;8.80;;;;;;;11.55;51.91;98271.77;267460;1266;22567;-76
2023/03/05 21:15:34;;;;;;;14.60;8.40;;;;;;;10.88;53.52;98266.54;267385;1269;22590;-76
2023/03/05 21:21:43;;;;;;;12.90;8.00;;;;;;;10.79;53.45;98271.23;267642;1269;22641;-76
2023/03/05 21:27:59;;;;;;;13.80;8.00;;;;;;;11.14;52.59;98265.46;267370;1266;24339;-73
2023/03/05 21:34:03;;;;;;;13.50;7.40;;;;;;;11.79;50.99;98255.42;267730;1272;25290;-72
2023/03/05 21:40:09;;;;;;;11.70;7.40;;;;;;;11.88;50.82;98253.33;267573;1266;22541;-72
2023/03/05 21:46:12;;;;;;;13.70;8.00;;;;;;;11.51;51.47;98252.02;267435;1272;25469;-72
2023/03/05 21:52:18;;;;;;;13.80;7.90;;;;;;;11.80;51.05;98235.89;267600;1273;25099;-72
2023/03/05 21:58:21;;;;;;;14.70;8.60;;;;;;;11.96;50.69;98239.59;267577;1270;22558;-72
2023/03/05 22:04:27;;;;;;;14.30;9.00;;;;;;;12.13;50.25;98233.63;267385;1266;22693;-72
2023/03/05 22:10:31;;;;;;;14.70;8.90;;;;;;;12.02;50.59;98231.73;267438;1273;22555;-72
2023/03/05 22:16:35;;;;;;;16.90;9.90;;;;;;;12.04;50.59;98228.92;266957;1272;22563;-72
2023/03/05 22:22:38;;;;;;;14.70;9.70;;;;;;;12.11;50.58;98225.40;267098;1256;22521;-72
2023/03/05 22:28:41;;;;;;;17.30;9.70;;;;;;;12.17;50.60;98218.83;267237;1266;24276;-72
2023/03/05 22:34:44;;;;;;;15.50;8.80;;;;;;;12.10;50.82;98218.50;267542;1271;22763;-72
2023/03/05 22:40:48;;;;;;;14.20;8.40;;;;;;;12.18;50.84;98213.77;267692;1273;24187;-73
2023/03/05 22:46:51;;;;;;;15.40;9.80;;;;;;;12.42;50.48;98216.19;267493;1267;22562;-72
2023/03/05 22:52:54;;;;;;;16.80;10.40;;;;;;;12.19;50.87;98206.82;267477;1272;24746;-71
2023/03/05 22:58:57;;;;;;;18.10;10.10;;;;;;;12.36;50.55;98207.16;267255;1270;22574;-72
2023/03/05 23:05:02;;;;;;;17.00;9.60;;;;;;;12.47;50.28;98203.32;267199;1270;22524;-72
2023/03/05 23:11:09;;;;;;;19.00;10.20;;;;;;;12.28;50.47;98197.33;267354;1260;22531;-72
2023/03/05 23:17:14;;;;;;;17.30;10.10;;;;;;;12.06;50.96;98192.58;267913;1273;25223;-71
2023/03/05 23:23:16;;;;;;;15.50;9.70;;;;;;;12.45;50.27;98191.56;267596;1272;26005;-71
2023/03/05 23:29:19;;;;;;;17.80;10.00;;;;;;;12.33;50.30;98187.59;267402;1269;25578;-72
2023/03/05 23:35:33;;;;;;;17.90;10.10;;;;;;;12.31;50.43;98183.25;267572;1270;22515;-72
2023/03/05 23:41:36;;;;;;;17.20;10.50;;;;;;;12.31;50.38;98187.15;267773;1269;22529;-72
2023/03/05 23:47:42;;;;;;;17.40;9.70;;;;;;;12.35;50.29;98193.89;267506;1273;23265;-72
2023/03/05 23:53:45;;;;;;;17.90;10.40;;;;;;;12.65;49.97;98192.98;267588;1273;22526;-73
2023/03/05 23:59:48;;;;;;;16.30;9.70;;;;;;;12.61;49.80;98187.36;267398;1273;24165;-73
